createdAt,value
2023-07-24T03:52:01.796Z,100.00
2023-07-24T03:54:29.259Z,100.00
2023-07-24T03:56:56.554Z,100.00
2023-07-24T03:59:24.257Z,100.00
2023-07-24T04:01:51.609Z,100.00
2023-07-24T04:04:19.465Z,100.00
2023-07-24T04:06:47.466Z,100.00
2023-07-24T04:09:17.636Z,100.00
2023-07-24T04:11:46.865Z,100.00
2023-07-24T04:14:14.618Z,100.00
2023-07-24T04:16:41.958Z,100.00
2023-07-24T04:19:09.849Z,100.00
2023-07-24T04:21:37.360Z,100.00
2023-07-24T04:24:05.332Z,100.00
2023-07-24T04:26:34.412Z,100.00
2023-07-24T04:29:02.936Z,100.00
2023-07-24T04:31:30.845Z,100.00
2023-07-24T04:33:58.232Z,100.00
2023-07-24T04:36:26.015Z,100.00
2023-07-24T04:38:53.818Z,100.00
2023-07-24T04:41:21.730Z,100.00
2023-07-24T04:43:49.071Z,100.00
2023-07-24T04:46:16.919Z,100.00
2023-07-24T04:48:44.716Z,100.00
2023-07-24T04:51:12.195Z,100.00
2023-07-24T04:53:40.585Z,100.00
2023-07-24T04:56:08.288Z,100.00
2023-07-24T04:58:35.674Z,100.00
2023-07-24T05:01:05.306Z,100.00
2023-07-24T05:03:33.643Z,100.00
2023-07-24T05:06:00.960Z,100.00
2023-07-24T05:08:29.323Z,100.00
2023-07-24T05:11:00.089Z,100.00
2023-07-24T05:13:27.849Z,100.00
2023-07-24T05:15:55.795Z,100.00
2023-07-24T05:18:23.435Z,100.00
2023-07-24T05:20:52.590Z,100.00
2023-07-24T05:23:20.689Z,100.00
2023-07-24T05:25:48.119Z,100.00
2023-07-24T05:28:15.480Z,100.00
2023-07-24T05:30:42.850Z,100.00
2023-07-24T05:33:10.627Z,100.00
2023-07-24T05:35:37.998Z,100.00
2023-07-24T05:38:05.866Z,100.00
2023-07-24T05:40:33.588Z,100.00
2023-07-24T05:43:00.871Z,100.00
2023-07-24T05:45:28.674Z,100.00
2023-07-24T05:47:56.060Z,100.00
2023-07-24T05:50:23.447Z,100.00
2023-07-24T05:52:50.811Z,100.00
2023-07-24T05:55:18.208Z,100.00
2023-07-24T05:57:46.531Z,100.00
2023-07-24T06:00:14.049Z,100.00
2023-07-24T06:02:43.839Z,100.00
2023-07-24T06:05:11.378Z,100.00
2023-07-24T06:07:38.667Z,100.00
2023-07-24T06:10:06.537Z,100.00
2023-07-24T06:12:33.877Z,100.00
2023-07-24T06:15:01.264Z,100.00
2023-07-24T06:17:28.605Z,100.00
2023-07-24T06:19:56.395Z,100.00
2023-07-24T06:22:24.714Z,100.00
2023-07-24T06:24:52.648Z,100.00
2023-07-24T06:27:20.068Z,100.00
2023-07-24T06:29:49.440Z,100.00
2023-07-24T06:32:18.643Z,100.00
2023-07-24T06:34:46.767Z,100.00
2023-07-24T06:37:22.323Z,100.00
2023-07-24T06:39:50.323Z,100.00
2023-07-24T06:42:18.268Z,100.00
2023-07-24T06:44:45.643Z,100.00
2023-07-24T06:47:13.003Z,100.00
2023-07-24T06:49:40.430Z,100.00
2023-07-24T06:52:08.022Z,100.00
2023-07-24T06:54:35.639Z,100.00
2023-07-24T06:57:03.572Z,100.00
2023-07-24T06:59:30.912Z,100.00
2023-07-24T07:01:58.716Z,100.00
2023-07-24T07:04:26.040Z,100.00
2023-07-24T07:06:53.789Z,100.00
2023-07-24T07:09:21.596Z,100.00
2023-07-24T07:11:48.915Z,100.00
2023-07-24T07:14:16.387Z,100.00
2023-07-24T07:16:43.751Z,100.00
2023-07-24T07:19:11.719Z,100.00
2023-07-24T07:21:39.088Z,100.00
2023-07-24T07:24:06.653Z,100.00
2023-07-24T07:26:34.353Z,100.00
2023-07-24T07:29:01.778Z,100.00
2023-07-24T07:31:30.144Z,100.00
2023-07-24T07:33:57.521Z,100.00
2023-07-24T07:36:25.204Z,100.00
2023-07-24T07:38:53.428Z,100.00
2023-07-24T07:41:20.897Z,100.00
2023-07-24T07:43:49.108Z,100.00
2023-07-24T07:46:16.803Z,100.00
2023-07-24T07:48:44.256Z,100.00
2023-07-24T07:51:11.559Z,100.00
2023-07-24T07:53:39.598Z,100.00
2023-07-24T07:56:07.215Z,100.00
2023-07-24T07:58:35.129Z,100.00
2023-07-24T08:01:06.423Z,100.00
2023-07-24T08:03:35.425Z,100.00
2023-07-24T08:06:03.401Z,100.00
2023-07-24T08:08:30.770Z,100.00
2023-07-24T08:10:58.226Z,100.00
2023-07-24T08:13:25.608Z,100.00
2023-07-24T08:15:53.307Z,100.00
2023-07-24T08:18:21.037Z,100.00
2023-07-24T08:20:48.526Z,100.00
2023-07-24T08:23:15.990Z,100.00
2023-07-24T08:25:56.955Z,100.00
2023-07-24T08:28:24.657Z,100.00
2023-07-24T08:30:59.235Z,100.00
2023-07-24T08:33:26.687Z,100.00
2023-07-24T08:36:20.374Z,100.00
2023-07-24T08:38:48.681Z,100.00
2023-07-24T08:41:16.116Z,100.00
2023-07-24T08:43:45.112Z,100.00
2023-07-24T08:46:12.685Z,100.00
2023-07-24T08:48:42.724Z,100.00
2023-07-24T08:51:15.652Z,100.00
2023-07-24T08:53:44.733Z,100.00
2023-07-24T08:56:13.844Z,100.00
2023-07-24T08:58:41.695Z,100.00
2023-07-24T09:01:11.138Z,100.00
2023-07-24T09:03:39.285Z,100.00
2023-07-24T09:06:10.830Z,100.00
2023-07-24T09:08:41.261Z,100.00
2023-07-24T09:11:10.758Z,100.00
2023-07-24T09:13:39.469Z,100.00
2023-07-24T09:16:07.664Z,100.00
2023-07-24T09:18:42.522Z,100.00
2023-07-24T09:21:13.491Z,100.00
2023-07-24T09:23:42.151Z,100.00
2023-07-24T09:26:09.647Z,100.00
2023-07-24T09:28:38.080Z,100.00
2023-07-24T09:31:06.198Z,100.00
2023-07-24T09:33:41.774Z,100.00
2023-07-24T09:36:10.294Z,100.00
2023-07-24T09:38:39.316Z,100.00
2023-07-24T09:41:07.754Z,100.00
2023-07-24T09:43:40.633Z,100.00
2023-07-24T09:46:10.392Z,100.00
2023-07-24T09:51:13.952Z,100.00
2023-07-24T09:53:53.239Z,100.00
2023-07-24T09:56:35.045Z,100.00
2023-07-24T09:59:13.458Z,100.00
2023-07-24T10:01:41.999Z,100.00
2023-07-24T10:04:11.287Z,100.00
2023-07-24T10:06:39.467Z,100.00
2023-07-24T10:09:08.686Z,100.00
2023-07-24T10:11:37.708Z,100.00
2023-07-24T10:14:06.052Z,100.00
2023-07-24T10:16:34.725Z,100.00
2023-07-24T10:19:02.631Z,100.00
2023-07-24T10:21:30.422Z,100.00
2023-07-24T10:24:01.849Z,100.00
2023-07-24T10:26:29.110Z,100.00
2023-07-24T10:28:56.375Z,100.00
2023-07-24T10:31:30.187Z,100.00
2023-07-24T10:34:06.470Z,100.00
2023-07-24T10:36:39.405Z,100.00
2023-07-24T10:39:16.097Z,100.00
2023-07-24T10:41:46.066Z,100.00
2023-07-24T10:44:13.755Z,100.00
2023-07-24T10:46:45.881Z,100.00
2023-07-24T10:49:13.904Z,100.00
2023-07-24T10:51:41.264Z,100.00
2023-07-24T10:54:09.106Z,100.00
2023-07-24T10:56:37.768Z,100.00
2023-07-24T10:59:05.888Z,100.00
2023-07-24T11:01:35.081Z,100.00
2023-07-24T11:04:03.861Z,100.00
2023-07-24T11:06:31.350Z,100.00
2023-07-24T11:09:00.591Z,100.00
2023-07-24T11:11:33.882Z,100.00
2023-07-24T11:14:04.011Z,100.00
2023-07-24T11:16:34.318Z,100.00
2023-07-24T11:19:02.599Z,100.00
2023-07-24T11:21:31.233Z,100.00
2023-07-24T11:23:59.854Z,100.00
2023-07-24T11:26:29.043Z,100.00
2023-07-24T11:28:56.841Z,100.00
2023-07-24T11:31:24.733Z,100.00
2023-07-24T11:33:54.088Z,100.00
2023-07-24T11:36:22.673Z,100.00
2023-07-24T11:38:50.742Z,100.00
2023-07-24T11:41:19.225Z,100.00
2023-07-24T11:43:48.677Z,100.00
2023-07-24T11:46:25.741Z,100.00
2023-07-24T11:48:56.741Z,100.00
2023-07-24T11:51:26.917Z,100.00
2023-07-24T11:54:07.838Z,100.00
2023-07-24T11:56:35.704Z,100.00
2023-07-24T11:59:16.667Z,100.00
2023-07-24T12:01:51.196Z,100.00
2023-07-24T12:04:19.472Z,100.00
2023-07-24T12:06:47.596Z,100.00
2023-07-24T12:09:15.334Z,100.00
2023-07-24T12:11:46.638Z,100.00
2023-07-24T12:14:15.722Z,100.00
2023-07-24T12:16:44.614Z,100.00
2023-07-24T12:19:11.995Z,100.00
2023-07-24T12:21:39.360Z,100.00
2023-07-24T12:24:06.756Z,100.00
2023-07-24T12:26:34.207Z,100.00
2023-07-24T12:29:02.090Z,100.00
2023-07-24T12:31:30.363Z,100.00
2023-07-24T12:33:58.642Z,100.00
2023-07-24T12:36:26.222Z,100.00
2023-07-24T12:38:53.763Z,100.00
2023-07-24T12:41:21.105Z,100.00
2023-07-24T12:43:48.591Z,100.00
2023-07-24T12:46:16.635Z,100.00
2023-07-24T12:48:44.053Z,100.00
2023-07-24T12:51:11.616Z,100.00
2023-07-24T12:53:41.876Z,100.00
2023-07-24T12:56:15.159Z,100.00
2023-07-24T12:58:42.888Z,100.00
2023-07-24T13:01:10.343Z,100.00
2023-07-24T13:03:37.910Z,100.00
2023-07-24T13:06:05.802Z,100.00
2023-07-24T13:08:33.978Z,100.00
2023-07-24T13:11:01.453Z,100.00
2023-07-24T13:13:29.303Z,100.00
2023-07-24T13:16:21.907Z,100.00
2023-07-24T13:18:49.325Z,100.00
2023-07-24T13:21:17.211Z,100.00
2023-07-24T13:23:44.570Z,100.00
2023-07-24T13:26:13.956Z,100.00
2023-07-24T13:28:41.914Z,100.00
2023-07-24T13:31:14.321Z,100.00
2023-07-24T13:33:42.561Z,100.00
2023-07-24T13:36:10.467Z,100.00
2023-07-24T13:38:38.086Z,100.00
2023-07-24T13:41:05.794Z,100.00
2023-07-24T13:43:33.973Z,100.00
2023-07-24T13:46:03.734Z,100.00
2023-07-24T13:48:31.251Z,100.00
2023-07-24T13:50:58.720Z,100.00
2023-07-24T13:53:27.096Z,100.00
2023-07-24T13:55:55.418Z,100.00
2023-07-24T13:58:22.864Z,100.00
2023-07-24T14:00:50.816Z,100.00
2023-07-24T14:03:20.989Z,100.00
2023-07-24T14:05:48.941Z,100.00
2023-07-24T14:08:16.719Z,100.00
2023-07-24T14:10:44.284Z,100.00
2023-07-24T14:13:11.679Z,100.00
2023-07-24T14:15:39.018Z,100.00
2023-07-24T14:18:06.655Z,100.00
2023-07-24T14:20:34.562Z,100.00
2023-07-24T14:23:01.905Z,100.00
2023-07-24T14:25:29.661Z,100.00
2023-07-24T14:27:57.119Z,100.00
2023-07-24T14:30:24.831Z,100.00
2023-07-24T14:32:52.543Z,100.00
2023-07-24T14:35:20.204Z,100.00
2023-07-24T14:37:48.097Z,100.00
2023-07-24T14:40:15.449Z,100.00
2023-07-24T14:42:43.267Z,100.00
2023-07-24T14:45:11.417Z,100.00
2023-07-24T14:47:39.746Z,100.00
2023-07-24T14:50:07.706Z,100.00
2023-07-24T14:52:35.156Z,100.00
2023-07-24T14:55:02.629Z,100.00
2023-07-24T14:57:30.036Z,100.00
2023-07-24T14:59:57.752Z,100.00
2023-07-24T15:02:25.476Z,100.00
2023-07-24T15:04:52.848Z,100.00
2023-07-24T15:07:20.610Z,100.00
2023-07-24T15:09:47.959Z,100.00
2023-07-24T15:12:15.480Z,100.00
2023-07-24T15:14:42.915Z,100.00
2023-07-24T15:17:10.327Z,100.00
2023-07-24T15:19:38.095Z,100.00
2023-07-24T15:22:05.653Z,100.00
2023-07-24T15:24:33.104Z,100.00
2023-07-24T15:27:00.952Z,100.00
2023-07-24T15:29:29.371Z,100.00
2023-07-24T15:31:57.327Z,100.00
2023-07-24T15:34:25.671Z,100.00
2023-07-24T15:36:53.458Z,100.00
2023-07-24T15:39:20.788Z,100.00
2023-07-24T15:41:48.180Z,100.00
2023-07-24T15:44:15.863Z,100.00
2023-07-24T15:46:44.936Z,100.00
2023-07-24T15:49:12.961Z,100.00
2023-07-24T15:51:41.466Z,99.74
2023-07-24T15:54:11.613Z,84.23
2023-07-24T15:56:40.324Z,72.86
2023-07-24T15:59:10.133Z,65.46
2023-07-24T16:01:37.857Z,63.54
2023-07-24T16:04:05.372Z,59.45
2023-07-24T16:06:33.218Z,55.88
2023-07-24T16:09:01.560Z,54.79
2023-07-24T16:11:29.881Z,52.79
2023-07-24T16:13:58.448Z,53.11
2023-07-24T16:16:26.556Z,52.09
2023-07-24T16:19:16.444Z,52.15
2023-07-24T16:21:46.377Z,56.42
2023-07-24T16:24:16.647Z,62.31
2023-07-24T16:26:46.185Z,70.08
2023-07-24T16:29:14.082Z,77.04
2023-07-24T16:31:41.590Z,83.88
2023-07-24T16:34:09.629Z,90.16
2023-07-24T16:36:37.664Z,97.93
2023-07-24T16:39:07.120Z,100.00
2023-07-24T16:41:35.374Z,100.00
2023-07-24T16:44:03.481Z,100.00
2023-07-24T16:46:31.442Z,100.00
2023-07-24T16:48:58.797Z,100.00
2023-07-24T16:51:26.673Z,100.00
2023-07-24T16:53:54.024Z,100.00
2023-07-24T16:56:21.316Z,100.00
2023-07-24T16:58:48.691Z,100.00
2023-07-24T17:01:16.497Z,100.00
2023-07-24T17:03:44.468Z,100.00
2023-07-24T17:06:11.884Z,100.00
2023-07-24T17:08:40.310Z,100.00
2023-07-24T17:11:07.737Z,100.00
2023-07-24T17:13:35.710Z,100.00
2023-07-24T17:16:03.582Z,100.00
2023-07-24T17:18:30.888Z,100.00
2023-07-24T17:20:59.743Z,100.00
2023-07-24T17:23:27.054Z,100.00
2023-07-24T17:25:54.783Z,100.00
2023-07-24T17:28:23.548Z,100.00
2023-07-24T17:30:51.963Z,100.00
2023-07-24T17:33:20.319Z,100.00
2023-07-24T17:35:47.811Z,100.00
2023-07-24T17:38:15.576Z,100.00
2023-07-24T17:40:43.383Z,100.00
2023-07-24T17:43:11.150Z,100.00
2023-07-24T17:45:38.985Z,100.00
2023-07-24T17:48:07.256Z,100.00
2023-07-24T17:50:35.810Z,100.00
2023-07-24T17:53:03.686Z,100.00
2023-07-24T17:55:31.703Z,100.00
2023-07-24T17:57:59.475Z,100.00
2023-07-24T18:00:28.195Z,100.00
2023-07-24T18:02:56.210Z,100.00
2023-07-24T18:05:23.702Z,100.00
2023-07-24T18:07:52.721Z,100.00
2023-07-24T18:10:21.411Z,100.00
2023-07-24T18:12:49.927Z,100.00
2023-07-24T18:15:17.518Z,100.00
2023-07-24T18:17:46.554Z,100.00
2023-07-24T18:20:14.934Z,100.00
2023-07-24T18:22:44.004Z,100.00
2023-07-24T18:25:11.560Z,100.00
2023-07-24T18:27:39.876Z,100.00
2023-07-24T18:30:08.239Z,100.00
2023-07-24T18:32:35.623Z,100.00
2023-07-24T18:35:03.498Z,100.00
2023-07-24T18:37:31.631Z,100.00
2023-07-24T18:39:59.247Z,100.00
2023-07-24T18:42:27.107Z,100.00
2023-07-24T18:44:54.493Z,100.00
2023-07-24T18:47:21.855Z,100.00
2023-07-24T18:49:49.131Z,100.00
2023-07-24T18:52:16.903Z,100.00
2023-07-24T18:54:45.102Z,100.00
2023-07-24T18:57:12.898Z,100.00
2023-07-24T18:59:40.983Z,100.00
2023-07-24T19:02:09.017Z,100.00
2023-07-24T19:04:36.816Z,100.00
2023-07-24T19:07:05.040Z,100.00
2023-07-24T19:09:32.577Z,100.00
2023-07-24T19:12:01.430Z,100.00
2023-07-24T19:14:29.177Z,100.00
2023-07-24T19:16:57.217Z,100.00
2023-07-24T19:19:25.127Z,100.00
2023-07-24T19:21:52.495Z,100.00
2023-07-24T19:24:19.883Z,100.00
2023-07-24T19:26:48.331Z,100.00
2023-07-24T19:29:15.737Z,100.00
2023-07-24T19:31:43.540Z,100.00
2023-07-24T19:34:11.965Z,100.00
2023-07-24T19:36:39.420Z,100.00
2023-07-24T19:39:07.365Z,100.00
2023-07-24T19:41:35.322Z,100.00
2023-07-24T19:44:03.102Z,100.00
2023-07-24T19:46:30.916Z,100.00
2023-07-24T19:49:00.512Z,100.00
2023-07-24T19:51:27.964Z,100.00
2023-07-24T19:53:56.227Z,100.00
2023-07-24T19:56:24.077Z,100.00
2023-07-24T19:58:52.288Z,100.00
2023-07-24T20:01:20.302Z,100.00
2023-07-24T20:03:48.296Z,100.00
2023-07-24T20:06:16.126Z,100.00
2023-07-24T20:08:43.474Z,100.00
2023-07-24T20:11:11.321Z,100.00
2023-07-24T20:13:39.257Z,100.00
2023-07-24T20:16:06.761Z,100.00
2023-07-24T20:18:34.248Z,100.00
2023-07-24T20:21:02.983Z,100.00
2023-07-24T20:23:31.008Z,100.00
2023-07-24T20:25:58.827Z,100.00
2023-07-24T20:28:27.293Z,100.00
2023-07-24T20:30:54.897Z,100.00
2023-07-24T20:33:22.291Z,100.00
2023-07-24T20:35:55.674Z,100.00
2023-07-24T20:38:33.380Z,100.00
2023-07-24T20:41:01.906Z,100.00
2023-07-24T20:43:30.647Z,100.00
2023-07-24T20:45:58.717Z,100.00
2023-07-24T20:48:27.513Z,100.00
2023-07-24T20:50:55.429Z,100.00
2023-07-24T20:53:22.739Z,100.00
2023-07-24T20:55:50.217Z,100.00
2023-07-24T20:58:17.609Z,100.00
2023-07-24T21:00:46.078Z,100.00
2023-07-24T21:03:13.485Z,100.00
2023-07-24T21:05:41.563Z,100.00
2023-07-24T21:08:10.230Z,100.00
2023-07-24T21:10:37.572Z,100.00
2023-07-24T21:13:04.917Z,100.00
2023-07-24T21:15:33.564Z,100.00
2023-07-24T21:18:01.973Z,100.00
2023-07-24T21:20:29.357Z,100.00
2023-07-24T21:22:56.744Z,100.00
2023-07-24T21:25:24.570Z,100.00
2023-07-24T21:27:52.428Z,100.00
2023-07-24T21:30:21.944Z,100.00
2023-07-24T21:32:49.635Z,100.00
2023-07-24T21:35:19.480Z,100.00
2023-07-24T21:37:47.207Z,100.00
2023-07-24T21:40:14.608Z,100.00
2023-07-24T21:42:42.428Z,100.00
2023-07-24T21:45:10.623Z,100.00
2023-07-24T21:47:38.000Z,100.00
2023-07-24T21:50:06.181Z,100.00
2023-07-24T21:52:33.524Z,100.00
2023-07-24T21:55:01.279Z,100.00
2023-07-24T21:57:28.890Z,100.00
2023-07-24T21:59:56.253Z,100.00
2023-07-24T22:02:23.640Z,100.00
2023-07-24T22:04:51.581Z,100.00
2023-07-24T22:07:18.887Z,100.00
2023-07-24T22:09:46.491Z,100.00
2023-07-24T22:12:14.423Z,100.00
2023-07-24T22:14:41.802Z,100.00
2023-07-24T22:17:09.634Z,100.00
2023-07-24T22:19:37.103Z,100.00
2023-07-24T22:22:04.631Z,100.00
2023-07-24T22:24:33.878Z,100.00
2023-07-24T22:27:01.550Z,100.00
2023-07-24T22:29:29.303Z,100.00
2023-07-24T22:31:57.100Z,100.00
2023-07-24T22:34:25.160Z,100.00
2023-07-24T22:36:52.450Z,100.00
2023-07-24T22:39:20.219Z,100.00
2023-07-24T22:41:47.610Z,100.00
2023-07-24T22:44:15.080Z,100.00
2023-07-24T22:46:42.438Z,100.00
2023-07-24T22:49:10.295Z,100.00
2023-07-24T22:51:37.584Z,100.00
2023-07-24T22:54:05.341Z,100.00
2023-07-24T22:56:32.759Z,100.00
2023-07-24T22:59:03.145Z,100.00
2023-07-24T23:01:32.651Z,100.00
2023-07-24T23:04:00.426Z,100.00
2023-07-24T23:06:27.826Z,100.00
2023-07-24T23:08:56.064Z,100.00
2023-07-24T23:11:23.456Z,100.00
2023-07-24T23:13:51.542Z,100.00
2023-07-24T23:16:18.950Z,100.00
2023-07-24T23:18:46.258Z,100.00
2023-07-24T23:21:13.623Z,100.00
2023-07-24T23:23:40.979Z,100.00
2023-07-24T23:26:08.376Z,100.00
2023-07-24T23:28:36.215Z,100.00
2023-07-24T23:31:04.954Z,100.00
2023-07-24T23:33:36.616Z,100.00
2023-07-24T23:36:08.137Z,100.00
2023-07-24T23:38:37.584Z,100.00
2023-07-24T23:41:06.357Z,100.00
2023-07-24T23:43:35.152Z,100.00
2023-07-24T23:46:10.811Z,100.00
2023-07-24T23:48:38.518Z,100.00
2023-07-24T23:51:06.440Z,100.00
2023-07-24T23:53:33.820Z,100.00
2023-07-24T23:56:01.108Z,100.00
2023-07-24T23:58:28.500Z,100.00
